Seminole, Texas
Current Conditions -  °F | °C
As of 9:55 AM on Friday 24 Oct 2014 (Local Time) from KGNC Reporting Station
Clear Clear  
Wind Chill: 63°   Ceiling: Unl
Heat Index: 63°   Visibility: 10mi
Dew Point: 60°   Wind: 7mph
Humidity: 90%   Direction: 230°SW
Pressure: 30.22"   Gusts: NA
Location:  32.73°N, 102.64°W
Report Text: KGNC 241455Z AUTO 23006KT 10SM CLR 17/16 A3022 RMK AO2 T01710155
Loading
Personal Weather Stations






























Interactive Weather Map
Tropical Storm Tracking
New forecast layout! Learn more

10-Day Weather Forecast

Advertisements
Track Severe Weather on mobile